Time;durP1;ratioP1;P1;durP2;ratioP2;P2;SDS_P1;SDS_P2;PMS_P1;PMS_P2;Temp;Humidity;BMP_temperature;BMP_pressure;BME280_temperature;BME280_humidity;BME280_pressure;Samples;Min_cycle;Max_cycle;Signal;HPM_P1;HPM_P2
2022/08/08 00:01:16;;;;;;;10.35;5.18;;;;;;;25.98;56.42;100192.59;2100748;28;20508;-76
2022/08/08 00:02:46;;;;;;;9.07;5.65;;;;;;;25.99;56.25;100187.06;2104234;28;20469;-75
2022/08/08 00:04:18;;;;;;;9.48;5.65;;;;;;;26.01;56.39;100187.84;2111241;28;20051;-76
2022/08/08 00:05:48;;;;;;;10.30;5.70;;;;;;;26.05;56.17;100186.75;2109802;28;20062;-76
2022/08/08 00:07:18;;;;;;;8.60;4.82;;;;;;;26.07;56.08;100187.50;2104488;28;20076;-75
2022/08/08 00:08:47;;;;;;;8.57;5.10;;;;;;;26.06;55.89;100188.47;2096124;28;20127;-75
2022/08/08 00:10:15;;;;;;;7.93;4.55;;;;;;;26.07;56.15;100184.81;2109204;28;20666;-75
2022/08/08 00:11:40;;;;;;;9.57;5.38;;;;;;;26.07;56.12;100179.38;2097909;28;20461;-76
2022/08/08 00:13:10;;;;;;;10.15;5.25;;;;;;;26.10;56.16;100181.06;2109650;28;20077;-75
2022/08/08 00:14:45;;;;;;;9.48;4.82;;;;;;;26.10;55.87;100179.22;2105360;28;20062;-75
2022/08/08 00:16:10;;;;;;;10.77;5.95;;;;;;;26.10;56.03;100173.81;2104209;28;20101;-76
2022/08/08 00:17:48;;;;;;;12.18;5.53;;;;;;;26.08;55.76;100175.72;2110775;28;20051;-75
2022/08/08 00:19:17;;;;;;;9.55;5.40;;;;;;;26.06;55.99;100177.63;2108652;28;20652;-76
2022/08/08 00:20:43;;;;;;;9.63;4.90;;;;;;;26.04;56.14;100178.72;2103261;28;20063;-75
2022/08/08 00:22:09;;;;;;;10.35;5.38;;;;;;;25.99;56.22;100170.84;2111044;28;20143;-75
2022/08/08 00:23:40;;;;;;;8.98;5.03;;;;;;;25.98;56.06;100184.47;2104620;28;20070;-76
2022/08/08 00:25:07;;;;;;;11.02;4.97;;;;;;;25.96;56.42;100181.84;2105466;28;20443;-75
2022/08/08 00:26:34;;;;;;;9.82;5.15;;;;;;;25.97;56.32;100175.47;2102621;28;20048;-76
2022/08/08 00:28:01;;;;;;;9.63;4.70;;;;;;;26.01;56.21;100177.03;2099616;28;20108;-76
2022/08/08 00:29:29;;;;;;;11.55;5.30;;;;;;;26.01;56.01;100174.31;2098359;28;20048;-75
2022/08/08 00:30:56;;;;;;;10.32;5.15;;;;;;;26.01;55.84;100168.91;2085650;28;20052;-76
2022/08/08 00:32:23;;;;;;;7.85;4.43;;;;;;;26.00;55.78;100172.56;2101531;28;20087;-75
2022/08/08 00:33:53;;;;;;;9.30;5.00;;;;;;;25.99;55.88;100170.84;2093434;28;20114;-75
2022/08/08 00:35:32;;;;;;;8.55;4.95;;;;;;;25.99;56.04;100175.41;2110425;28;20038;-76
2022/08/08 00:37:00;;;;;;;9.00;5.25;;;;;;;25.99;56.20;100168.13;2096630;28;20101;-76
2022/08/08 00:38:34;;;;;;;8.70;4.85;;;;;;;25.99;55.80;100170.00;2099631;28;20423;-75
2022/08/08 00:40:14;;;;;;;10.18;5.10;;;;;;;25.95;55.91;100182.81;2107740;28;20480;-76
2022/08/08 00:42:10;;;;;;;9.85;5.00;;;;;;;25.88;56.23;100185.94;2104180;28;20046;-75
2022/08/08 00:43:59;;;;;;;7.90;5.10;;;;;;;25.86;56.14;100174.34;2102913;28;20051;-74
2022/08/08 00:45:51;;;;;;;9.38;5.22;;;;;;;25.85;56.27;100178.88;2112481;28;20139;-75
2022/08/08 00:47:52;;;;;;;8.70;5.30;;;;;;;25.82;56.27;100184.47;2089047;28;20080;-75
2022/08/08 00:49:45;;;;;;;8.18;5.15;;;;;;;25.80;56.60;100179.13;2097301;28;20040;-75
2022/08/08 00:51:46;;;;;;;10.65;6.05;;;;;;;25.77;56.35;100181.16;2083549;28;20082;-75
2022/08/08 00:53:26;;;;;;;7.65;4.93;;;;;;;25.71;56.76;100178.78;2076583;28;20493;-75
2022/08/08 00:55:16;;;;;;;10.63;5.47;;;;;;;25.63;56.66;100173.81;2092122;28;20181;-75
2022/08/08 00:57:20;;;;;;;10.02;5.60;;;;;;;25.52;56.97;100178.03;2096624;28;20047;-74
2022/08/08 00:59:18;;;;;;;10.27;5.50;;;;;;;25.45;57.33;100173.94;2095262;28;20587;-75
2022/08/08 01:00:51;;;;;;;8.25;5.28;;;;;;;25.42;57.54;100173.13;2096579;28;20135;-75
2022/08/08 01:02:41;;;;;;;8.95;5.40;;;;;;;25.45;57.59;100173.94;2094662;28;20059;-74
2022/08/08 01:04:37;;;;;;;13.15;5.65;;;;;;;25.45;57.33;100174.81;2097253;28;20052;-75
2022/08/08 01:06:27;;;;;;;12.18;5.47;;;;;;;25.46;57.48;100176.56;2096238;28;20550;-75
2022/08/08 01:08:15;;;;;;;10.68;5.80;;;;;;;25.47;57.46;100177.44;2113731;28;20047;-75
2022/08/08 01:10:30;;;;;;;11.20;5.30;;;;;;;25.40;57.72;100174.19;2090536;28;20051;-75
2022/08/08 01:12:51;;;;;;;10.68;5.20;;;;;;;25.37;57.74;100166.22;2102176;28;20155;-75
2022/08/08 01:15:05;;;;;;;9.45;4.68;;;;;;;25.36;57.49;100164.47;2092783;28;20048;-75
2022/08/08 01:17:05;;;;;;;9.45;4.97;;;;;;;25.33;57.78;100165.53;2077118;28;20045;-75
2022/08/08 01:19:07;;;;;;;9.45;5.70;;;;;;;25.37;57.69;100161.69;2096247;28;20060;-75
2022/08/08 01:21:10;;;;;;;11.63;5.55;;;;;;;25.39;57.27;100161.63;2104008;28;20173;-75
2022/08/08 01:23:06;;;;;;;11.18;5.47;;;;;;;25.39;57.52;100162.50;2095002;28;20105;-75
2022/08/08 01:25:07;;;;;;;9.48;5.60;;;;;;;25.36;57.61;100159.06;2097433;28;20105;-75
2022/08/08 01:27:01;;;;;;;8.07;4.63;;;;;;;25.32;57.52;100160.22;2102230;28;20051;-74
2022/08/08 01:28:43;;;;;;;11.50;5.30;;;;;;;25.32;57.52;100174.59;2105784;28;20047;-75
2022/08/08 01:30:47;;;;;;;8.52;5.60;;;;;;;25.34;57.73;100164.56;2095583;28;20056;-74
2022/08/08 01:32:52;;;;;;;9.73;5.20;;;;;;;25.31;57.40;100158.47;2095341;28;20059;-74
2022/08/08 01:35:01;;;;;;;9.80;5.53;;;;;;;25.17;57.84;100159.22;2095534;28;20101;-75
2022/08/08 01:37:07;;;;;;;9.88;5.22;;;;;;;25.12;57.93;100164.00;2070334;28;20069;-75
2022/08/08 01:39:03;;;;;;;11.95;5.82;;;;;;;25.13;58.09;100164.88;2070338;28;20046;-75
2022/08/08 01:40:36;;;;;;;9.38;5.55;;;;;;;25.14;58.10;100172.03;2095327;28;20056;-75
2022/08/08 01:42:11;;;;;;;9.77;5.47;;;;;;;25.15;58.12;100173.75;2102706;28;20055;-75
2022/08/08 01:43:48;;;;;;;10.13;5.53;;;;;;;25.14;58.20;100166.63;2087626;28;20060;-75
2022/08/08 01:45:33;;;;;;;8.65;5.00;;;;;;;25.13;58.15;100175.69;2103852;28;20134;-75
2022/08/08 01:47:11;;;;;;;11.25;5.30;;;;;;;25.08;58.29;100169.63;2095667;28;20051;-75
2022/08/08 01:48:52;;;;;;;8.10;5.00;;;;;;;25.09;58.15;100180.34;2103864;28;20639;-75
2022/08/08 01:50:28;;;;;;;9.50;5.47;;;;;;;25.11;58.42;100174.88;2104447;28;20056;-75
2022/08/08 01:51:59;;;;;;;9.55;5.68;;;;;;;25.10;58.37;100168.59;2111330;28;20458;-75
2022/08/08 01:53:41;;;;;;;9.77;5.32;;;;;;;25.09;58.39;100174.06;2104095;28;20070;-75
2022/08/08 01:55:15;;;;;;;10.00;5.55;;;;;;;25.06;58.25;100169.72;2104666;28;20076;-75
2022/08/08 01:56:53;;;;;;;10.35;5.70;;;;;;;25.05;58.52;100176.09;2094532;28;20040;-75
2022/08/08 01:58:37;;;;;;;8.52;5.55;;;;;;;24.99;58.47;100181.81;2096256;28;20052;-75
2022/08/08 02:00:16;;;;;;;9.93;5.55;;;;;;;24.99;58.52;100176.41;2105163;28;20043;-75
2022/08/08 02:02:08;;;;;;;10.60;4.85;;;;;;;25.04;58.50;100185.13;2105128;28;20044;-75
2022/08/08 02:03:55;;;;;;;8.77;4.72;;;;;;;25.04;58.51;100177.03;2095150;28;20087;-75
2022/08/08 02:05:29;;;;;;;9.32;5.20;;;;;;;25.05;58.54;100181.50;2103543;28;20187;-75
2022/08/08 02:07:00;;;;;;;9.50;4.80;;;;;;;25.08;58.38;100180.44;2095571;28;20490;-75
2022/08/08 02:08:41;;;;;;;10.25;5.15;;;;;;;25.10;58.45;100184.81;2095279;28;20056;-75
2022/08/08 02:10:28;;;;;;;8.75;5.28;;;;;;;25.12;58.14;100185.63;2095293;28;20570;-75
2022/08/08 02:11:52;;;;;;;8.55;5.80;;;;;;;25.12;58.13;100182.91;2102252;28;20048;-75
2022/08/08 02:13:24;;;;;;;10.68;5.60;;;;;;;25.12;58.39;100185.63;2093387;28;20492;-75
2022/08/08 02:14:52;;;;;;;9.50;5.28;;;;;;;25.10;58.32;100179.41;2089544;28;20060;-75
2022/08/08 02:16:22;;;;;;;10.90;6.05;;;;;;;25.06;58.19;100185.94;2099982;28;20460;-75
2022/08/08 02:17:52;;;;;;;10.32;5.90;;;;;;;25.02;58.47;100181.63;2095232;28;20055;-75
2022/08/08 02:19:25;;;;;;;9.07;5.28;;;;;;;24.99;58.32;100176.41;2094344;28;20123;-75
2022/08/08 02:22:52;;;;;;;11.27;5.40;;;;;;;24.91;58.67;100178.66;2096705;28;20044;-75
2022/08/08 02:24:20;;;;;;;12.20;5.63;;;;;;;24.85;58.81;100178.94;2096033;28;20128;-75
2022/08/08 02:25:49;;;;;;;9.05;5.00;;;;;;;24.77;59.01;100173.06;2099362;28;20059;-75
2022/08/08 02:27:21;;;;;;;11.93;5.20;;;;;;;24.75;59.34;100169.56;2095230;28;20276;-75
2022/08/08 02:28:58;;;;;;;10.50;5.78;;;;;;;24.77;59.37;100175.75;2086650;28;20128;-75
2022/08/08 02:30:26;;;;;;;11.27;5.85;;;;;;;24.80;59.46;100181.00;2104532;28;20048;-75
2022/08/08 02:32:11;;;;;;;11.10;5.50;;;;;;;24.77;59.32;100171.22;2091800;28;20052;-75
2022/08/08 02:33:45;;;;;;;11.02;5.80;;;;;;;24.77;59.62;100182.03;2094357;28;20068;-75
2022/08/08 02:35:29;;;;;;;10.80;5.53;;;;;;;24.78;59.44;100177.50;2101623;28;20047;-75
2022/08/08 02:37:05;;;;;;;12.05;6.05;;;;;;;24.78;59.58;100178.38;2095732;28;20052;-75
2022/08/08 02:38:55;;;;;;;11.38;5.88;;;;;;;24.78;59.61;100180.22;2102570;28;20098;-76
2022/08/08 02:40:36;;;;;;;11.25;5.68;;;;;;;24.77;59.52;100182.03;2096484;28;20048;-75
2022/08/08 02:42:34;;;;;;;10.40;5.72;;;;;;;24.80;59.81;100175.63;2095750;28;20048;-75
2022/08/08 02:44:25;;;;;;;10.27;5.85;;;;;;;24.79;59.56;100171.16;2094951;28;20080;-75
2022/08/08 02:46:14;;;;;;;9.27;5.33;;;;;;;24.81;59.60;100177.34;2095682;28;20142;-75
2022/08/08 02:48:09;;;;;;;10.52;5.97;;;;;;;24.81;59.76;100180.91;2104913;28;20815;-75
2022/08/08 02:50:01;;;;;;;8.95;5.82;;;;;;;24.78;59.91;100182.91;2066730;28;20054;-75
2022/08/08 02:51:55;;;;;;;10.20;5.75;;;;;;;24.71;60.01;100176.94;2104909;28;20150;-75
2022/08/08 02:53:36;;;;;;;7.85;5.22;;;;;;;24.58;60.64;100183.94;2096657;28;20788;-75
2022/08/08 02:55:25;;;;;;;11.13;5.05;;;;;;;24.59;60.64;100183.00;2104686;28;20044;-75
2022/08/08 02:57:12;;;;;;;9.45;5.18;;;;;;;24.61;60.62;100181.09;2095082;28;20052;-75
2022/08/08 02:59:39;;;;;;;10.13;5.13;;;;;;;24.45;61.00;100191.78;2094479;28;20059;-75
2022/08/08 03:01:46;;;;;;;11.82;5.95;;;;;;;24.38;61.14;100187.66;2098836;28;20620;-75
2022/08/08 03:03:44;;;;;;;9.82;5.40;;;;;;;24.30;61.02;100192.56;2095341;28;20045;-75
2022/08/08 03:05:51;;;;;;;9.77;5.10;;;;;;;24.16;61.24;100195.03;2104482;28;20050;-74
2022/08/08 03:07:44;;;;;;;8.63;5.05;;;;;;;23.97;61.91;100194.19;2104557;28;20056;-75
2022/08/08 03:09:57;;;;;;;11.45;5.80;;;;;;;23.96;62.02;100197.84;2093707;28;20123;-75
2022/08/08 03:11:57;;;;;;;10.95;6.22;;;;;;;24.11;61.95;100197.06;2101844;28;20430;-75
2022/08/08 03:13:45;;;;;;;10.10;5.78;;;;;;;24.18;61.77;100194.00;2087527;28;20041;-74
2022/08/08 03:15:33;;;;;;;10.10;5.53;;;;;;;24.27;61.78;100191.84;2087884;28;20056;-74
2022/08/08 03:17:02;;;;;;;10.68;5.53;;;;;;;24.31;61.38;100194.31;2096112;28;20052;-74
2022/08/08 03:18:30;;;;;;;10.95;4.90;;;;;;;24.35;61.29;100200.44;2098887;28;20064;-75
2022/08/08 03:20:07;;;;;;;11.93;6.00;;;;;;;24.38;61.54;100198.44;2081090;28;20057;-75
2022/08/08 03:21:32;;;;;;;10.02;5.93;;;;;;;24.39;61.40;100194.81;2102921;28;20129;-74
2022/08/08 03:22:55;;;;;;;10.75;5.60;;;;;;;24.43;61.74;100200.91;2084855;28;20148;-74
2022/08/08 03:24:18;;;;;;;10.07;5.90;;;;;;;24.40;61.67;100195.69;2099098;28;20044;-74
2022/08/08 03:25:44;;;;;;;11.07;5.80;;;;;;;24.41;61.74;100205.53;2092824;28;20053;-75
2022/08/08 03:27:12;;;;;;;10.32;5.82;;;;;;;24.41;61.72;100201.00;2100257;28;20055;-75
2022/08/08 03:28:41;;;;;;;10.00;5.80;;;;;;;24.43;61.83;100204.47;2092905;28;20358;-74
2022/08/08 03:30:06;;;;;;;10.73;6.00;;;;;;;24.45;61.37;100199.88;2101096;28;20056;-75
2022/08/08 03:33:19;;;;;;;10.15;6.10;;;;;;;24.44;61.62;100206.22;2103470;28;20056;-75
2022/08/08 03:34:44;;;;;;;9.02;5.78;;;;;;;24.40;61.71;100196.56;2094988;28;20087;-75
2022/08/08 03:36:13;;;;;;;9.20;5.57;;;;;;;24.39;62.01;100202.03;2099223;28;20499;-75
2022/08/08 03:37:35;;;;;;;8.75;5.78;;;;;;;24.41;61.69;100205.53;2086224;28;20504;-74
2022/08/08 03:39:00;;;;;;;13.25;5.57;;;;;;;24.39;61.98;100207.41;2095161;28;20107;-74
2022/08/08 03:40:30;;;;;;;13.23;5.47;;;;;;;24.36;61.99;100200.34;2094147;28;20156;-75
2022/08/08 03:41:55;;;;;;;11.73;5.60;;;;;;;24.36;61.95;100205.72;2094070;28;20048;-75
2022/08/08 03:43:20;;;;;;;11.27;6.28;;;;;;;24.39;62.04;100197.50;2100015;28;20068;-75
2022/08/08 03:44:48;;;;;;;12.50;6.25;;;;;;;24.44;62.26;100199.94;2093644;28;20101;-75
2022/08/08 03:46:10;;;;;;;;;;;;;;;24.47;62.43;100198.00;2099261;28;20780;-75
2022/08/08 03:47:36;;;;;;;9.00;5.35;;;;;;;24.48;62.50;100201.56;2093138;28;19927;-74
2022/08/08 03:48:58;;;;;;;9.48;5.53;;;;;;;24.52;62.48;100198.63;2096916;28;20044;-74
2022/08/08 03:50:26;;;;;;;11.45;6.32;;;;;;;24.50;62.27;100202.34;2078496;28;20045;-75
2022/08/08 03:51:52;;;;;;;11.73;5.70;;;;;;;24.41;62.59;100195.59;2091245;28;20114;-75
2022/08/08 03:53:19;;;;;;;11.45;5.40;;;;;;;24.38;62.75;100190.34;2092538;28;20052;-75
2022/08/08 03:54:46;;;;;;;14.23;6.05;;;;;;;24.45;62.75;100207.09;2091784;28;20230;-75
2022/08/08 03:56:10;;;;;;;8.82;5.43;;;;;;;24.51;62.84;100196.88;2087386;28;20049;-75
2022/08/08 03:57:33;;;;;;;10.93;5.30;;;;;;;24.60;62.83;100199.13;2101298;28;20490;-75
2022/08/08 03:58:55;;;;;;;10.07;5.38;;;;;;;24.66;62.59;100200.63;2100895;28;20090;-74
2022/08/08 04:00:19;;;;;;;12.07;5.57;;;;;;;24.74;62.27;100200.22;2101744;28;20044;-75
2022/08/08 04:01:49;;;;;;;11.30;6.40;;;;;;;24.77;62.14;100208.16;2096939;28;20056;-75
2022/08/08 04:03:11;;;;;;;8.95;6.05;;;;;;;24.83;62.27;100203.31;2095437;28;20539;-75
2022/08/08 04:04:36;;;;;;;9.35;5.32;;;;;;;24.90;62.00;100199.38;2095300;28;20097;-75
2022/08/08 04:05:58;;;;;;;10.95;6.20;;;;;;;24.95;61.87;100208.09;2091636;28;20047;-75
2022/08/08 04:07:21;;;;;;;8.05;5.05;;;;;;;25.02;61.86;100209.53;2091704;28;20041;-75
2022/08/08 04:08:43;;;;;;;13.25;5.75;;;;;;;25.10;61.99;100201.03;2093785;28;20063;-75
2022/08/08 04:10:18;;;;;;;10.40;5.22;;;;;;;25.19;61.90;100205.94;2096571;28;20052;-75
2022/08/08 04:11:41;;;;;;;14.27;5.50;;;;;;;25.17;61.52;100210.53;2091904;28;20032;-74
2022/08/08 04:13:04;;;;;;;9.38;5.47;;;;;;;24.96;61.73;100211.69;2101018;28;20492;-75
2022/08/08 04:14:26;;;;;;;9.30;5.30;;;;;;;24.77;62.06;100208.16;2102230;28;20043;-74
2022/08/08 04:15:49;;;;;;;9.88;5.70;;;;;;;24.72;62.61;100207.53;2093575;28;20053;-74
2022/08/08 04:17:10;;;;;;;9.20;5.35;;;;;;;24.73;62.50;100209.28;2094522;28;20059;-74
2022/08/08 04:18:33;;;;;;;12.25;5.55;;;;;;;24.79;62.44;100206.25;2092720;28;20086;-74
2022/08/08 04:19:55;;;;;;;10.18;5.38;;;;;;;24.90;62.62;100209.28;2094531;28;20064;-74
2022/08/08 04:21:17;;;;;;;9.10;5.43;;;;;;;25.08;62.68;100212.84;2098528;28;20173;-75
2022/08/08 04:22:39;;;;;;;8.75;5.35;;;;;;;25.22;62.37;100211.16;2103400;28;20036;-74
2022/08/08 04:24:02;;;;;;;11.27;5.20;;;;;;;25.25;61.83;100216.44;2088395;28;20048;-74
2022/08/08 04:25:26;;;;;;;12.00;5.38;;;;;;;25.21;62.00;100217.53;2091675;28;20067;-75
2022/08/08 04:26:47;;;;;;;8.18;4.70;;;;;;;25.18;62.05;100212.31;2092472;28;20139;-75
2022/08/08 04:28:11;;;;;;;8.75;5.13;;;;;;;25.20;61.85;100217.63;2100341;28;20466;-75
2022/08/08 04:29:33;;;;;;;10.05;5.35;;;;;;;25.26;61.96;100218.19;2092500;28;20079;-75
2022/08/08 04:30:56;;;;;;;8.85;4.70;;;;;;;25.37;61.50;100223.88;2094765;28;20440;-75
2022/08/08 04:32:18;;;;;;;9.00;5.20;;;;;;;25.47;61.27;100221.53;2100458;28;20385;-74
2022/08/08 04:33:41;;;;;;;9.38;4.97;;;;;;;25.47;61.06;100220.69;2103366;28;20063;-74
2022/08/08 04:35:04;;;;;;;9.68;4.97;;;;;;;25.51;61.38;100224.94;2087709;28;20049;-74
2022/08/08 04:36:31;;;;;;;11.43;4.70;;;;;;;25.60;61.21;100222.63;2094629;28;20040;-75
2022/08/08 04:37:54;;;;;;;13.63;5.47;;;;;;;25.71;60.75;100217.53;2100506;28;20074;-74
2022/08/08 04:39:20;;;;;;;9.52;5.25;;;;;;;25.88;60.70;100216.56;2094661;28;20056;-74
2022/08/08 04:40:44;;;;;;;8.57;5.20;;;;;;;26.09;60.20;100220.78;2103058;28;20046;-75
2022/08/08 04:42:06;;;;;;;8.55;4.63;;;;;;;26.33;60.14;100214.91;2094780;28;20049;-75
2022/08/08 04:43:29;;;;;;;9.05;5.38;;;;;;;26.60;59.51;100221.44;2094636;28;20048;-74
2022/08/08 04:44:51;;;;;;;10.90;4.90;;;;;;;26.85;59.07;100224.41;2092174;28;20504;-75
2022/08/08 04:46:14;;;;;;;13.05;4.55;;;;;;;27.09;58.81;100223.94;2090509;28;20059;-74
2022/08/08 04:47:35;;;;;;;12.93;5.00;;;;;;;27.31;58.19;100221.63;2103155;28;20071;-75
2022/08/08 04:48:58;;;;;;;9.30;4.45;;;;;;;27.49;57.83;100227.75;2097019;28;20074;-74
2022/08/08 04:50:20;;;;;;;8.85;4.00;;;;;;;27.65;57.50;100234.84;2104031;28;20039;-75
2022/08/08 04:51:43;;;;;;;10.20;4.50;;;;;;;27.84;57.26;100222.81;2097309;28;20462;-75
2022/08/08 04:53:06;;;;;;;8.68;4.00;;;;;;;28.01;56.79;100226.22;2093487;28;20072;-75
2022/08/08 04:54:28;;;;;;;8.05;4.32;;;;;;;28.18;56.41;100233.28;2094327;28;20040;-75
2022/08/08 04:55:52;;;;;;;9.55;4.47;;;;;;;28.38;56.00;100224.69;2097390;28;20064;-75
2022/08/08 04:57:15;;;;;;;10.90;4.70;;;;;;;28.58;55.69;100227.91;2094883;28;20045;-75
2022/08/08 04:58:37;;;;;;;9.35;4.28;;;;;;;28.74;55.17;100229.53;2099615;28;20036;-75
2022/08/08 04:59:59;;;;;;;5.93;3.75;;;;;;;28.78;54.92;100217.44;2093447;28;20102;-74
2022/08/08 05:01:22;;;;;;;10.07;5.00;;;;;;;28.84;54.56;100232.47;2094205;28;20033;-75
2022/08/08 05:02:44;;;;;;;10.43;4.05;;;;;;;28.89;54.63;100222.13;2092347;28;20052;-75
2022/08/08 05:04:07;;;;;;;9.30;4.03;;;;;;;28.97;54.51;100225.22;2086160;28;20076;-74
2022/08/08 05:05:33;;;;;;;7.68;3.70;;;;;;;29.11;54.42;100224.25;2091771;28;20109;-74
2022/08/08 05:06:55;;;;;;;7.93;3.67;;;;;;;29.23;53.91;100235.13;2094022;28;20569;-74
2022/08/08 05:08:17;;;;;;;8.50;3.97;;;;;;;29.43;53.53;100232.91;2099087;28;20063;-75
2022/08/08 05:09:43;;;;;;;7.43;4.00;;;;;;;29.67;53.03;100236.56;2089096;28;20071;-75
2022/08/08 05:11:08;;;;;;;8.82;4.05;;;;;;;29.87;52.69;100233.28;2092334;28;20048;-75
2022/08/08 05:12:30;;;;;;;10.07;4.88;;;;;;;30.07;52.19;100229.13;2093697;28;20045;-76
2022/08/08 05:13:54;;;;;;;8.13;3.90;;;;;;;30.20;51.84;100238.13;2092019;28;20167;-75
2022/08/08 05:15:16;;;;;;;8.90;3.92;;;;;;;30.34;51.54;100240.69;2091949;28;20078;-76
2022/08/08 05:16:39;;;;;;;10.25;4.03;;;;;;;30.48;51.25;100235.09;2110607;28;20047;-75
2022/08/08 05:18:01;;;;;;;11.45;3.75;;;;;;;30.52;50.75;100241.22;2097357;28;20420;-75
2022/08/08 05:19:23;;;;;;;10.05;4.43;;;;;;;30.38;50.50;100239.50;2103668;28;20043;-75
2022/08/08 05:20:45;;;;;;;9.10;4.72;;;;;;;30.24;50.72;100238.78;2097236;28;20384;-76
2022/08/08 05:22:08;;;;;;;9.75;4.07;;;;;;;30.24;50.56;100250.56;2108751;28;20060;-75
2022/08/08 05:23:32;;;;;;;9.15;4.20;;;;;;;30.31;50.82;100240.06;2089785;28;20532;-75
2022/08/08 05:24:56;;;;;;;10.40;4.03;;;;;;;30.28;51.04;100246.59;2091278;28;20601;-76
2022/08/08 05:26:21;;;;;;;12.30;3.72;;;;;;;30.52;50.59;100243.97;2093208;28;20441;-75
2022/08/08 05:27:44;;;;;;;9.80;4.00;;;;;;;30.93;49.63;100248.94;2091701;28;20052;-75
2022/08/08 05:29:07;;;;;;;7.53;3.80;;;;;;;31.33;48.95;100246.75;2088131;28;20732;-76
2022/08/08 05:30:31;;;;;;;8.18;3.72;;;;;;;31.63;48.46;100251.66;2096641;28;20142;-75
2022/08/08 05:31:54;;;;;;;9.80;4.18;;;;;;;31.81;47.47;100258.38;2104828;28;20570;-74
2022/08/08 05:33:17;;;;;;;8.50;4.07;;;;;;;31.86;47.35;100258.00;2103143;28;20052;-75
2022/08/08 05:34:43;;;;;;;9.27;4.30;;;;;;;31.60;47.78;100255.50;2092023;28;20078;-75
2022/08/08 05:36:10;;;;;;;8.52;3.92;;;;;;;31.30;47.88;100255.19;2098224;28;20420;-75
2022/08/08 05:37:38;;;;;;;10.32;3.67;;;;;;;31.20;48.62;100265.94;2094664;28;20456;-75
2022/08/08 05:39:05;;;;;;;9.43;3.72;;;;;;;31.50;47.93;100259.94;2100269;28;20646;-75
2022/08/08 05:40:29;;;;;;;10.70;4.15;;;;;;;32.10;46.86;100264.19;2094401;28;20044;-75
2022/08/08 05:41:59;;;;;;;8.65;4.10;;;;;;;32.66;45.21;100255.91;2092665;28;20544;-75
2022/08/08 05:43:26;;;;;;;9.00;3.88;;;;;;;33.03;44.47;100256.41;2089971;28;20044;-75
2022/08/08 05:44:53;;;;;;;8.90;4.05;;;;;;;33.41;43.76;100259.44;2092729;28;20048;-75
2022/08/08 05:46:16;;;;;;;7.30;3.60;;;;;;;33.69;43.21;100259.75;2099584;28;20067;-75
2022/08/08 05:47:41;;;;;;;7.80;3.78;;;;;;;33.60;43.01;100262.31;2092897;28;20448;-75
2022/08/08 05:49:04;;;;;;;7.72;4.15;;;;;;;33.56;42.90;100260.84;2092235;28;20044;-75
2022/08/08 05:50:29;;;;;;;9.30;4.00;;;;;;;33.21;43.16;100261.19;2099026;28;20044;-75
2022/08/08 05:51:52;;;;;;;5.70;3.78;;;;;;;32.88;43.73;100263.19;2094118;28;20090;-75
2022/08/08 05:53:24;;;;;;;7.85;5.20;;;;;;;32.55;44.05;100254.09;2098810;28;20100;-75
2022/08/08 05:54:47;;;;;;;9.30;3.88;;;;;;;32.36;44.62;100257.47;2093766;28;20040;-75
2022/08/08 05:56:09;;;;;;;10.13;4.13;;;;;;;32.30;44.66;100255.25;2099555;28;20515;-75
2022/08/08 05:57:36;;;;;;;5.55;4.07;;;;;;;32.48;44.70;100257.47;2094492;28;20131;-75
2022/08/08 05:59:05;;;;;;;7.15;3.97;;;;;;;33.07;43.54;100257.88;2107253;28;20086;-75
2022/08/08 06:00:33;;;;;;;10.60;3.70;;;;;;;33.70;42.43;100259.63;2103119;28;20037;-75
2022/08/08 06:01:57;;;;;;;6.28;3.25;;;;;;;34.22;41.65;100266.81;2094134;28;20079;-75
2022/08/08 06:03:22;;;;;;;9.35;4.00;;;;;;;34.64;40.60;100267.50;2090734;28;20153;-75
2022/08/08 06:04:53;;;;;;;9.43;3.70;;;;;;;35.01;39.56;100269.56;2094077;28;20040;-75
2022/08/08 06:06:16;;;;;;;9.48;3.83;;;;;;;35.30;38.68;100270.47;2099979;28;20055;-76
2022/08/08 06:07:40;;;;;;;7.90;3.42;;;;;;;35.39;38.14;100269.56;2088927;28;20044;-76
2022/08/08 06:09:04;;;;;;;7.25;3.47;;;;;;;35.41;38.40;100275.78;2096996;28;20059;-76
2022/08/08 06:10:30;;;;;;;8.73;4.75;;;;;;;35.60;38.15;100269.38;2101494;28;20592;-76
2022/08/08 06:11:53;;;;;;;14.40;3.85;;;;;;;35.78;37.76;100267.59;2090723;28;20055;-76
2022/08/08 06:13:18;;;;;;;7.95;4.00;;;;;;;35.87;37.81;100265.84;2098484;28;20051;-75
2022/08/08 06:14:42;;;;;;;8.07;3.90;;;;;;;35.92;37.77;100255.25;2092671;28;20048;-76
2022/08/08 06:16:06;;;;;;;7.22;3.30;;;;;;;35.98;37.83;100260.16;2091667;28;20440;-75
2022/08/08 06:17:47;;;;;;;8.98;3.92;;;;;;;36.15;37.70;100264.00;2104761;28;20143;-76
2022/08/08 06:19:12;;;;;;;7.53;3.42;;;;;;;36.26;37.42;100255.56;2096196;28;20040;-76
2022/08/08 06:20:35;;;;;;;9.07;3.90;;;;;;;36.29;37.44;100261.63;2089999;28;20435;-76
2022/08/08 06:21:58;;;;;;;5.95;3.78;;;;;;;36.29;37.45;100269.03;2091313;28;20053;-76
2022/08/08 06:23:36;;;;;;;6.20;3.25;;;;;;;36.21;37.30;100261.53;2102235;28;20093;-77
2022/08/08 06:24:59;;;;;;;9.93;3.67;;;;;;;36.22;37.29;100263.25;2094190;28;20143;-77
2022/08/08 06:26:25;;;;;;;9.13;4.05;;;;;;;36.18;36.70;100272.81;2093788;28;20041;-77
2022/08/08 06:27:52;;;;;;;5.90;3.40;;;;;;;36.15;36.61;100267.59;2102756;28;20585;-76
2022/08/08 06:29:25;;;;;;;7.25;3.55;;;;;;;36.25;36.81;100267.56;2097305;28;20162;-77
2022/08/08 06:30:51;;;;;;;6.07;3.30;;;;;;;36.31;36.38;100272.47;2093319;28;20074;-76
2022/08/08 06:32:16;;;;;;;6.80;3.47;;;;;;;36.37;36.32;100271.84;2091859;28;20597;-77
2022/08/08 06:33:50;;;;;;;8.32;4.10;;;;;;;36.40;35.85;100274.31;2101119;28;20135;-76
2022/08/08 06:35:14;;;;;;;7.43;3.88;;;;;;;36.50;35.80;100266.84;2095145;28;20044;-75
2022/08/08 06:36:54;;;;;;;8.63;3.80;;;;;;;36.63;35.57;100270.09;2093769;28;20048;-75
2022/08/08 06:38:22;;;;;;;7.30;3.65;;;;;;;36.70;35.47;100271.22;2100567;28;20055;-74
2022/08/08 06:39:50;;;;;;;7.88;3.08;;;;;;;36.76;35.21;100277.97;2097970;28;20067;-75
2022/08/08 06:41:17;;;;;;;8.18;3.55;;;;;;;36.83;34.72;100273.59;2110525;28;20059;-74
2022/08/08 06:42:52;;;;;;;7.35;4.45;;;;;;;36.93;34.41;100270.78;2102815;28;20036;-75
2022/08/08 06:44:24;;;;;;;7.43;3.38;;;;;;;36.97;34.44;100275.78;2102761;28;20504;-75
2022/08/08 06:45:50;;;;;;;;;;;;;;;36.89;34.43;100275.72;2087241;28;20049;-75
2022/08/08 06:47:14;;;;;;;8.43;3.58;;;;;;;36.97;35.04;100278.56;2091154;28;19921;-74
2022/08/08 06:48:37;;;;;;;5.68;3.47;;;;;;;37.02;35.04;100281.69;2097575;28;20187;-74
2022/08/08 06:50:00;;;;;;;7.35;3.80;;;;;;;37.09;34.90;100284.69;2099978;28;20051;-75
2022/08/08 06:51:24;;;;;;;8.77;3.47;;;;;;;37.15;34.63;100288.75;2098589;28;20048;-75
2022/08/08 06:52:46;;;;;;;7.80;3.70;;;;;;;37.18;34.74;100285.66;2098314;28;20508;-75
2022/08/08 06:54:08;;;;;;;6.07;3.38;;;;;;;37.28;34.34;100289.19;2094154;28;20143;-75
2022/08/08 06:55:31;;;;;;;9.23;3.30;;;;;;;37.30;34.37;100289.88;2091014;28;20044;-75
2022/08/08 06:56:55;;;;;;;6.47;3.45;;;;;;;37.19;33.99;100291.00;2083892;28;20049;-76
2022/08/08 06:58:18;;;;;;;6.15;3.58;;;;;;;36.96;34.28;100289.72;2101613;28;20094;-75
2022/08/08 06:59:42;;;;;;;7.93;3.70;;;;;;;36.88;34.27;100296.03;2089955;28;20059;-75
2022/08/08 07:01:07;;;;;;;8.18;3.72;;;;;;;36.87;34.24;100304.44;2087614;28;20141;-75
2022/08/08 07:02:36;;;;;;;8.52;3.50;;;;;;;36.88;33.74;100297.91;2090212;28;20044;-75
2022/08/08 07:04:02;;;;;;;7.45;3.40;;;;;;;36.88;33.79;100298.78;2098889;28;20040;-75
2022/08/08 07:05:24;;;;;;;5.95;3.47;;;;;;;36.92;33.99;100296.56;2093329;28;20048;-75
2022/08/08 07:06:58;;;;;;;5.65;3.42;;;;;;;36.99;34.00;100304.03;2093905;28;20040;-76
2022/08/08 07:08:34;;;;;;;6.28;3.35;;;;;;;37.04;33.99;100301.69;2094081;28;20049;-75
2022/08/08 07:10:03;;;;;;;5.75;3.47;;;;;;;37.18;33.49;100307.69;2096568;28;20516;-75
2022/08/08 07:11:39;;;;;;;6.05;3.38;;;;;;;37.27;33.04;100315.88;2089064;28;20580;-76
2022/08/08 07:13:08;;;;;;;5.75;2.95;;;;;;;37.36;33.06;100308.53;2101697;28;20044;-76